Wetterdaten: Woche 13.01.03 - 19.01.03 (KW3)
Datum Zeit Temperatur Luftfeuchte Luftdruck Regenmenge Wind Richtung Taupunkt Windchill
13.01.2003 00:00 -11.6 C 75 % 1034.2 hPa 0.0 l/m 0.0 km/h (0 Bft) - - -15.1 C -11.6 C
13.01.2003 01:00 -12.0 C 76 % 1034.1 hPa 0.0 l/m 3.8 km/h (1 Bft) O-SO -15.4 C -14.3 C
13.01.2003 02:00 -12.3 C 75 % 1034.1 hPa 0.0 l/m 2.5 km/h (1 Bft) O-SO -15.7 C -13.6 C
13.01.2003 03:00 -12.7 C 75 % 1034.2 hPa 0.0 l/m 2.5 km/h (1 Bft) O-SO -16.1 C -13.8 C
13.01.2003 04:00 -12.7 C 76 % 1034.5 hPa 0.0 l/m 6.4 km/h (2 Bft) O-SO -16.1 C -16.3 C
13.01.2003 05:00 -12.5 C 77 % 1034.8 hPa 0.0 l/m 3.8 km/h (1 Bft) O-SO -15.6 C -14.6 C
13.01.2003 06:00 -12.5 C 78 % 1034.3 hPa 0.0 l/m 2.9 km/h (1 Bft) O-SO -15.6 C -14.2 C
13.01.2003 07:00 -11.9 C 78 % 1034.7 hPa 0.0 l/m 1.2 km/h (1 Bft) O-SO -14.9 C -12.3 C
13.01.2003 08:00 -10.7 C 79 % 1035.3 hPa 0.0 l/m 1.4 km/h (1 Bft) SO -13.6 C -11.5 C
13.01.2003 09:00 -9.6 C 72 % 1036.1 hPa 0.0 l/m 0.3 km/h (0 Bft) W-SW -13.7 C -9.6 C
13.01.2003 10:00 -8.1 C 67 % 1036.2 hPa 0.0 l/m 1.4 km/h (1 Bft) NW -13.2 C -8.6 C
13.01.2003 11:00 -6.3 C 61 % 1036.2 hPa 0.0 l/m 4.2 km/h (1 Bft) W-SW -12.6 C -7.9 C
13.01.2003 12:00 -5.1 C 56 % 1035.3 hPa 0.0 l/m 4.6 km/h (1 Bft) SW -12.6 C -6.8 C
13.01.2003 13:00 -4.2 C 53 % 1035.1 hPa 0.0 l/m 3.7 km/h (1 Bft) S -12.3 C -5.5 C
13.01.2003 14:00 -4.5 C 63 % 1034.1 hPa 0.0 l/m 5.1 km/h (1 Bft) SO -10.5 C -6.4 C
13.01.2003 15:00 -4.8 C 77 % 1034.1 hPa 0.0 l/m 4.0 km/h (1 Bft) SO -8.2 C -6.2 C
13.01.2003 16:00 -4.5 C 78 % 1034.5 hPa 0.0 l/m 3.8 km/h (1 Bft) S -7.8 C -5.7 C
13.01.2003 17:00 -4.3 C 78 % 1035.1 hPa 0.0 l/m 1.1 km/h (1 Bft) W -7.5 C -4.5 C
13.01.2003 18:00 -4.4 C 83 % 1035.1 hPa 0.0 l/m 0.1 km/h (0 Bft) - - -6.8 C -4.4 C
13.01.2003 19:00 -4.0 C 88 % 1035.2 hPa 0.3 l/m 0.1 km/h (0 Bft) - - -5.6 C -4.0 C
13.01.2003 20:00 -3.4 C 89 % 1035.8 hPa 0.0 l/m 0.9 km/h (0 Bft) W-SW -4.9 C -3.6 C
13.01.2003 21:00 -3.3 C 91 % 1036.2 hPa 0.0 l/m 0.3 km/h (0 Bft) W-SW -4.6 C -3.3 C
13.01.2003 22:00 -3.2 C 93 % 1036.2 hPa 0.0 l/m 1.7 km/h (1 Bft) O-SO -4.3 C -3.6 C
13.01.2003 23:00 -2.2 C 94 % 1036.2 hPa 0.0 l/m 1.4 km/h (1 Bft) S -3.0 C -2.7 C
14.01.2003 00:00 -1.8 C 94 % 1036.2 hPa 0.0 l/m 3.3 km/h (1 Bft) S-SO -2.6 C -2.7 C
14.01.2003 01:00 -1.7 C 93 % 1036.2 hPa 0.0 l/m 3.3 km/h (1 Bft) S -2.7 C -2.6 C
14.01.2003 02:00 -1.7 C 90 % 1037.0 hPa 0.0 l/m 6.9 km/h (2 Bft) S -3.1 C -4.1 C
14.01.2003 03:00 -1.8 C 89 % 1037.2 hPa 0.0 l/m 3.4 km/h (1 Bft) S-SO -3.3 C -2.8 C
14.01.2003 04:00 -1.7 C 90 % 1037.2 hPa 0.0 l/m 1.7 km/h (1 Bft) S-SO -3.2 C -2.1 C
14.01.2003 05:00 -1.6 C 90 % 1037.2 hPa 0.0 l/m 2.7 km/h (1 Bft) S -3.0 C -2.3 C
14.01.2003 06:00 -1.4 C 90 % 1037.2 hPa 0.0 l/m 2.3 km/h (1 Bft) S -2.8 C -1.9 C
14.01.2003 07:00 -1.2 C 91 % 1037.2 hPa 0.0 l/m 2.2 km/h (1 Bft) S-SO -2.5 C -1.7 C
14.01.2003 08:00 -1.0 C 91 % 1038.2 hPa 0.0 l/m 1.0 km/h (0 Bft) S-SO -2.2 C -1.2 C
14.01.2003 09:00 -0.5 C 89 % 1038.3 hPa 0.0 l/m 2.4 km/h (1 Bft) SW -2.1 C -1.0 C
14.01.2003 10:00 0.5 C 85 % 1038.3 hPa 0.0 l/m 1.4 km/h (1 Bft) S -1.8 C 0.2 C
14.01.2003 11:00 0.9 C 82 % 1037.3 hPa 0.0 l/m 5.7 km/h (1 Bft) S -1.9 C -0.6 C
14.01.2003 12:00 1.7 C 81 % 1037.2 hPa 0.0 l/m 1.2 km/h (1 Bft) SO -1.3 C 1.5 C
14.01.2003 13:00 2.1 C 79 % 1036.9 hPa 0.0 l/m 0.2 km/h (0 Bft) - - -1.1 C 2.1 C
14.01.2003 14:00 2.6 C 79 % 1036.2 hPa 0.0 l/m 1.4 km/h (1 Bft) S -0.7 C 2.5 C
14.01.2003 15:00 2.4 C 80 % 1036.2 hPa 0.0 l/m 3.4 km/h (1 Bft) SO -0.7 C 1.5 C
14.01.2003 16:00 1.8 C 83 % 1036.2 hPa 0.0 l/m 0.3 km/h (0 Bft) SO -0.8 C 1.8 C
14.01.2003 17:00 1.3 C 86 % 1036.6 hPa 0.0 l/m 0.0 km/h (0 Bft) - - -0.8 C 1.3 C
14.01.2003 18:00 1.0 C 88 % 1036.3 hPa 0.0 l/m 0.6 km/h (0 Bft) SO -0.7 C 0.9 C
14.01.2003 19:00 1.0 C 89 % 1036.6 hPa 0.0 l/m 0.1 km/h (0 Bft) - - -0.6 C 1.0 C
14.01.2003 20:00 0.7 C 92 % 1037.2 hPa 0.0 l/m 1.5 km/h (1 Bft) SO -0.5 C 0.4 C
14.01.2003 21:00 0.7 C 92 % 1037.2 hPa 0.0 l/m 2.8 km/h (1 Bft) O-SO -0.4 C -0.1 C
14.01.2003 22:00 0.5 C 93 % 1037.1 hPa 0.0 l/m 0.5 km/h (0 Bft) SO -0.5 C 0.5 C
14.01.2003 23:00 0.5 C 94 % 1036.2 hPa 0.0 l/m 0.0 km/h (0 Bft) - - -0.4 C 0.5 C
15.01.2003 00:00 0.4 C 95 % 1036.2 hPa 0.0 l/m 0.0 km/h (0 Bft) - - -0.3 C 0.4 C
15.01.2003 01:00 0.2 C 96 % 1035.3 hPa 0.0 l/m 0.0 km/h (0 Bft) - - -0.4 C 0.2 C
15.01.2003 02:00 0.1 C 96 % 1035.1 hPa 0.0 l/m 0.0 km/h (0 Bft) - - -0.4 C 0.1 C
15.01.2003 03:00 0.2 C 97 % 1035.1 hPa 0.0 l/m 0.0 km/h (0 Bft) - - -0.3 C 0.2 C
15.01.2003 04:00 0.2 C 97 % 1034.1 hPa 0.0 l/m 0.8 km/h (0 Bft) SO -0.2 C 0.0 C
15.01.2003 05:00 0.1 C 97 % 1034.1 hPa 0.0 l/m 1.0 km/h (0 Bft) SO -0.3 C -0.1 C
15.01.2003 06:00 0.2 C 97 % 1033.6 hPa 0.0 l/m 0.6 km/h (0 Bft) SO -0.3 C 0.1 C
15.01.2003 07:00 0.1 C 97 % 1033.1 hPa 0.0 l/m 1.8 km/h (1 Bft) SO -0.3 C -0.1 C
15.01.2003 08:00 0.2 C 97 % 1033.1 hPa 0.0 l/m 0.0 km/h (0 Bft) - - -0.1 C 0.2 C
15.01.2003 09:00 1.1 C 95 % 1033.1 hPa 0.0 l/m 0.1 km/h (0 Bft) S-SO 0.4 C 1.1 C
15.01.2003 10:00 2.4 C 82 % 1033.1 hPa 0.0 l/m 8.4 km/h (2 Bft) SO -0.4 C 0.2 C
15.01.2003 11:00 3.1 C 75 % 1033.1 hPa 0.0 l/m 5.9 km/h (2 Bft) S -0.9 C 1.7 C
15.01.2003 12:00 3.3 C 74 % 1032.4 hPa 0.0 l/m 10.5 km/h (2 Bft) S-SO -1.0 C 0.9 C
15.01.2003 13:00 3.9 C 69 % 1031.1 hPa 0.0 l/m 17.1 km/h (3 Bft) SO -1.3 C 0.1 C
15.01.2003 14:00 3.9 C 73 % 1031.0 hPa 0.0 l/m 15.6 km/h (3 Bft) SO -0.6 C 0.4 C
15.01.2003 15:00 3.1 C 77 % 1030.1 hPa 0.0 l/m 11.2 km/h (2 Bft) SO -0.6 C 0.4 C
15.01.2003 16:00 1.5 C 83 % 1029.9 hPa 0.0 l/m 3.3 km/h (1 Bft) S -1.0 C 0.7 C
15.01.2003 17:00 -0.0 C 90 % 1029.9 hPa 0.0 l/m 3.9 km/h (1 Bft) SO -1.5 C -1.0 C
15.01.2003 18:00 -0.7 C 93 % 1029.9 hPa 0.0 l/m 2.9 km/h (1 Bft) SO -1.7 C -1.5 C
15.01.2003 19:00 -0.8 C 94 % 1029.9 hPa 0.0 l/m 9.3 km/h (2 Bft) SO -1.7 C -3.9 C
15.01.2003 20:00 -1.1 C 95 % 1029.9 hPa 0.0 l/m 5.3 km/h (1 Bft) SO -1.9 C -2.9 C
15.01.2003 21:00 -1.4 C 95 % 1029.9 hPa 0.0 l/m 2.2 km/h (1 Bft) SO -2.0 C -1.8 C
15.01.2003 22:00 -1.2 C 96 % 1029.9 hPa 0.0 l/m 2.7 km/h (1 Bft) S-SW -1.8 C -1.6 C
15.01.2003 23:00 -1.2 C 96 % 1029.9 hPa 0.0 l/m 5.1 km/h (1 Bft) W -1.8 C -2.7 C
16.01.2003 00:00 -0.9 C 97 % 1029.7 hPa 0.0 l/m 6.0 km/h (2 Bft) W -1.4 C -2.8 C
16.01.2003 01:00 -1.0 C 97 % 1029.9 hPa 0.0 l/m 5.3 km/h (1 Bft) S-SO -1.4 C -2.5 C
16.01.2003 02:00 -0.2 C 97 % 1029.9 hPa 0.0 l/m 15.1 km/h (3 Bft) S-SO -0.6 C -4.6 C
16.01.2003 03:00 0.4 C 91 % 1029.9 hPa 0.0 l/m 11.3 km/h (2 Bft) SO -0.9 C -2.9 C
16.01.2003 04:00 -0.3 C 89 % 1029.9 hPa 0.0 l/m 8.2 km/h (2 Bft) SO -1.9 C -2.9 C
16.01.2003 05:00 -0.5 C 90 % 1029.9 hPa 0.0 l/m 10.8 km/h (2 Bft) SO -1.9 C -3.9 C
16.01.2003 06:00 -0.5 C 89 % 1029.9 hPa 0.0 l/m 13.6 km/h (3 Bft) SO -2.0 C -4.5 C
16.01.2003 07:00 -0.5 C 90 % 1030.4 hPa 0.0 l/m 8.3 km/h (2 Bft) SO -2.0 C -3.1 C
16.01.2003 08:00 -0.1 C 90 % 1031.0 hPa 0.0 l/m 3.0 km/h (1 Bft) S -1.4 C -0.8 C
16.01.2003 09:00 0.7 C 91 % 1031.9 hPa 0.0 l/m 9.0 km/h (2 Bft) SO -0.6 C -2.0 C
16.01.2003 10:00 1.8 C 86 % 1032.0 hPa 0.0 l/m 2.2 km/h (1 Bft) W -0.3 C 1.4 C
16.01.2003 11:00 2.5 C 82 % 1033.0 hPa 0.0 l/m 6.0 km/h (2 Bft) W -0.2 C 1.1 C
16.01.2003 12:00 3.5 C 76 % 1032.7 hPa 0.0 l/m 5.8 km/h (2 Bft) SO -0.3 C 2.2 C
16.01.2003 13:00 4.1 C 72 % 1032.0 hPa 0.0 l/m 4.0 km/h (1 Bft) SO -0.4 C 3.3 C
16.01.2003 14:00 3.7 C 75 % 1032.0 hPa 0.0 l/m 1.6 km/h (1 Bft) SO -0.3 C 3.5 C
16.01.2003 15:00 3.2 C 76 % 1032.0 hPa 0.0 l/m 2.4 km/h (1 Bft) SO -0.6 C 2.7 C
16.01.2003 16:00 2.3 C 81 % 1032.0 hPa 0.0 l/m 2.7 km/h (1 Bft) SO -0.7 C 1.8 C
16.01.2003 17:00 0.8 C 87 % 1032.9 hPa 0.0 l/m 3.8 km/h (1 Bft) O-SO -1.1 C -0.1 C
16.01.2003 18:00 0.2 C 90 % 1033.1 hPa 0.0 l/m 1.9 km/h (1 Bft) O-SO -1.2 C -0.1 C
16.01.2003 19:00 0.1 C 92 % 1033.1 hPa 0.0 l/m 3.1 km/h (1 Bft) O-SO -1.0 C -0.6 C
16.01.2003 20:00 0.0 C 92 % 1033.1 hPa 0.0 l/m 0.5 km/h (0 Bft) O-SO -1.1 C 0.0 C
16.01.2003 21:00 -1.4 C 93 % 1033.1 hPa 0.0 l/m 0.4 km/h (0 Bft) O-SO -2.4 C -1.4 C
16.01.2003 22:00 -2.0 C 95 % 1032.4 hPa 0.0 l/m 1.9 km/h (1 Bft) O-SO -2.8 C -2.6 C
16.01.2003 23:00 -2.3 C 95 % 1032.0 hPa 0.0 l/m 0.2 km/h (0 Bft) O-SO -3.0 C -2.3 C
17.01.2003 00:00 -1.9 C 98 % 1031.6 hPa 0.0 l/m 0.0 km/h (0 Bft) - - -2.2 C -1.9 C
17.01.2003 01:00 -0.9 C 100 % 1030.9 hPa 0.0 l/m 2.1 km/h (1 Bft) SO -0.9 C -1.6 C
17.01.2003 02:00 -0.8 C 100 % 1029.9 hPa 0.0 l/m 0.0 km/h (0 Bft) - - -0.8 C -0.8 C
17.01.2003 03:00 -0.8 C 100 % 1029.9 hPa 0.0 l/m 0.0 km/h (0 Bft) - - -0.8 C -0.8 C
17.01.2003 04:00 -1.0 C 100 % 1029.0 hPa 0.0 l/m 0.4 km/h (0 Bft) O-SO -1.0 C -1.1 C
17.01.2003 05:00 -1.2 C 100 % 1028.9 hPa 0.0 l/m 0.0 km/h (0 Bft) - - -1.2 C -1.2 C
17.01.2003 06:00 -1.1 C 100 % 1028.9 hPa 0.0 l/m 0.0 km/h (0 Bft) - - -1.1 C -1.1 C
17.01.2003 07:00 -1.1 C 100 % 1028.7 hPa 0.0 l/m 0.4 km/h (0 Bft) NW -1.1 C -1.2 C
17.01.2003 08:00 -1.5 C 100 % 1028.0 hPa 0.0 l/m 0.7 km/h (0 Bft) W -1.5 C -1.6 C
17.01.2003 09:00 -1.1 C 99 % 1027.9 hPa 0.0 l/m 0.1 km/h (0 Bft) - - -1.2 C -1.1 C
17.01.2003 10:00 -0.4 C 90 % 1027.9 hPa 0.0 l/m 0.5 km/h (0 Bft) W-NW -1.8 C -0.5 C
17.01.2003 11:00 0.8 C 84 % 1027.0 hPa 0.0 l/m 0.0 km/h (0 Bft) - - -1.6 C 0.8 C
17.01.2003 12:00 2.3 C 70 % 1026.7 hPa 0.0 l/m 8.8 km/h (2 Bft) S -2.6 C 0.1 C
17.01.2003 13:00 3.3 C 65 % 1025.8 hPa 0.0 l/m 10.2 km/h (2 Bft) SO -2.7 C 0.9 C
17.01.2003 14:00 3.6 C 68 % 1024.8 hPa 0.0 l/m 11.1 km/h (2 Bft) S-SO -1.6 C 1.2 C
17.01.2003 15:00 3.1 C 71 % 1024.8 hPa 0.0 l/m 12.0 km/h (2 Bft) S-SO -1.6 C 0.5 C
17.01.2003 16:00 1.8 C 76 % 1023.8 hPa 0.0 l/m 10.3 km/h (2 Bft) SO -2.1 C -0.9 C
17.01.2003 17:00 0.0 C 81 % 1023.7 hPa 0.0 l/m 4.6 km/h (1 Bft) O-SO -2.8 C -1.4 C
17.01.2003 18:00 -1.1 C 87 % 1023.7 hPa 0.0 l/m 1.5 km/h (1 Bft) SO -3.0 C -1.4 C
17.01.2003 19:00 -2.2 C 87 % 1023.6 hPa 0.0 l/m 2.2 km/h (1 Bft) O-SO -4.1 C -3.0 C
17.01.2003 20:00 -3.0 C 92 % 1022.8 hPa 0.0 l/m 2.1 km/h (1 Bft) O-SO -4.1 C -3.6 C
17.01.2003 21:00 -3.2 C 93 % 1022.7 hPa 0.0 l/m 2.4 km/h (1 Bft) O-SO -4.1 C -3.7 C
17.01.2003 22:00 -3.7 C 94 % 1022.7 hPa 0.0 l/m 0.6 km/h (0 Bft) O-SO -4.6 C -3.8 C
17.01.2003 23:00 -4.1 C 93 % 1022.7 hPa 0.0 l/m 0.8 km/h (0 Bft) O-SO -5.1 C -4.4 C
18.01.2003 00:00 -4.2 C 92 % 1022.7 hPa 0.0 l/m 2.2 km/h (1 Bft) O-SO -5.2 C -4.9 C
18.01.2003 01:00 -3.7 C 93 % 1022.7 hPa 0.0 l/m 1.0 km/h (0 Bft) O-SO -4.6 C -4.0 C
18.01.2003 02:00 -2.7 C 96 % 1022.7 hPa 0.0 l/m 0.3 km/h (0 Bft) O-SO -3.3 C -2.8 C
18.01.2003 03:00 -1.9 C 95 % 1022.7 hPa 0.0 l/m 0.7 km/h (0 Bft) O-SO -2.6 C -2.1 C
18.01.2003 04:00 -1.7 C 94 % 1022.7 hPa 0.0 l/m 2.2 km/h (1 Bft) O-SO -2.5 C -2.4 C
18.01.2003 05:00 -1.7 C 92 % 1022.7 hPa 0.0 l/m 0.0 km/h (0 Bft) - - -2.9 C -1.7 C
18.01.2003 06:00 -1.9 C 92 % 1022.7 hPa 0.0 l/m 0.3 km/h (0 Bft) W -3.0 C -2.0 C
18.01.2003 07:00 -2.1 C 94 % 1022.7 hPa 0.0 l/m 2.6 km/h (1 Bft) SO -2.9 C -2.9 C
18.01.2003 08:00 -2.8 C 94 % 1022.7 hPa 0.0 l/m 1.1 km/h (1 Bft) SO -3.7 C -3.2 C
18.01.2003 09:00 -2.3 C 95 % 1023.6 hPa 0.0 l/m 3.5 km/h (1 Bft) O-SO -3.0 C -3.7 C
18.01.2003 10:00 -0.5 C 92 % 1023.7 hPa 0.0 l/m 2.5 km/h (1 Bft) SO -1.6 C -0.9 C
18.01.2003 11:00 1.1 C 84 % 1023.5 hPa 0.0 l/m 5.5 km/h (1 Bft) SO -1.3 C -0.3 C
18.01.2003 12:00 2.7 C 73 % 1022.7 hPa 0.0 l/m 4.1 km/h (1 Bft) SO -1.7 C 1.7 C
18.01.2003 13:00 4.0 C 73 % 1022.1 hPa 0.0 l/m 4.1 km/h (1 Bft) SO -0.4 C 3.2 C
18.01.2003 14:00 4.7 C 71 % 1021.6 hPa 0.0 l/m 3.4 km/h (1 Bft) SO 0.0 C 4.1 C
18.01.2003 15:00 4.6 C 71 % 1021.6 hPa 0.0 l/m 1.1 km/h (0 Bft) SO -0.3 C 4.5 C
18.01.2003 16:00 3.1 C 76 % 1021.6 hPa 0.0 l/m 2.5 km/h (1 Bft) SO -0.7 C 2.7 C
18.01.2003 17:00 1.3 C 82 % 1021.6 hPa 0.0 l/m 6.3 km/h (2 Bft) O-SO -1.5 C -0.6 C
18.01.2003 18:00 -0.9 C 89 % 1021.6 hPa 0.0 l/m 1.1 km/h (0 Bft) O-SO -2.5 C -1.0 C
18.01.2003 19:00 -1.8 C 92 % 1021.6 hPa 0.0 l/m 0.0 km/h (0 Bft) - - -2.9 C -1.8 C
18.01.2003 20:00 -2.5 C 93 % 1021.6 hPa 0.0 l/m 0.0 km/h (0 Bft) - - -3.5 C -2.5 C
18.01.2003 21:00 -3.0 C 94 % 1020.8 hPa 0.0 l/m 1.8 km/h (1 Bft) O-SO -3.9 C -3.4 C
18.01.2003 22:00 -3.3 C 93 % 1019.9 hPa 0.0 l/m 0.0 km/h (0 Bft) - - -4.4 C -3.3 C
18.01.2003 23:00 -2.9 C 96 % 1019.6 hPa 0.0 l/m 1.2 km/h (1 Bft) O-SO -3.5 C -3.4 C
19.01.2003 00:00 -3.4 C 98 % 1019.3 hPa 0.0 l/m 1.6 km/h (1 Bft) O-SO -3.7 C -3.5 C
19.01.2003 01:00 -3.4 C 99 % 1018.5 hPa 0.0 l/m 1.1 km/h (1 Bft) O-SO -3.6 C -3.5 C
19.01.2003 02:00 -3.2 C 99 % 1018.5 hPa 0.0 l/m 3.4 km/h (1 Bft) O-SO -3.2 C -3.8 C
19.01.2003 03:00 -2.8 C 100 % 1017.6 hPa 0.0 l/m 3.5 km/h (1 Bft) O-SO -2.8 C -3.9 C
19.01.2003 04:00 -2.4 C 100 % 1017.0 hPa 0.0 l/m 3.5 km/h (1 Bft) O-SO -2.4 C -3.4 C
19.01.2003 05:00 -2.5 C 100 % 1016.2 hPa 0.0 l/m 2.9 km/h (1 Bft) O-SO -2.5 C -3.5 C
19.01.2003 06:00 -2.6 C 100 % 1015.4 hPa 0.0 l/m 2.2 km/h (1 Bft) O-SO -2.6 C -2.8 C
19.01.2003 07:00 -2.4 C 100 % 1015.4 hPa 0.0 l/m 2.6 km/h (1 Bft) O-SO -2.4 C -3.1 C
19.01.2003 08:00 -2.3 C 100 % 1015.2 hPa 0.0 l/m 1.5 km/h (1 Bft) O-SO -2.3 C -2.5 C
19.01.2003 09:00 -2.0 C 100 % 1014.5 hPa 0.0 l/m 4.8 km/h (1 Bft) O-SO -2.0 C -3.7 C
19.01.2003 10:00 -1.5 C 99 % 1014.4 hPa 0.0 l/m 7.7 km/h (2 Bft) O-SO -1.7 C -4.0 C
19.01.2003 11:00 -0.9 C 89 % 1014.2 hPa 0.0 l/m 3.7 km/h (1 Bft) SO -2.4 C -2.0 C
19.01.2003 12:00 -0.4 C 83 % 1013.3 hPa 0.0 l/m 4.5 km/h (1 Bft) SO -2.9 C -1.6 C
19.01.2003 13:00 0.2 C 80 % 1012.7 hPa 0.0 l/m 4.5 km/h (1 Bft) SO -2.8 C -1.2 C
19.01.2003 14:00 1.2 C 75 % 1013.0 hPa 0.0 l/m 3.3 km/h (1 Bft) W-NW -2.8 C 0.3 C
19.01.2003 15:00 0.6 C 79 % 1013.3 hPa 0.0 l/m 0.3 km/h (0 Bft) W-NW -2.6 C 0.6 C
19.01.2003 16:00 0.2 C 83 % 1013.4 hPa 0.0 l/m 0.8 km/h (0 Bft) W-NW -2.2 C 0.1 C
19.01.2003 17:00 -0.2 C 85 % 1014.4 hPa 0.0 l/m 0.0 km/h (0 Bft) - - -2.4 C -0.2 C
19.01.2003 18:00 -0.5 C 91 % 1014.8 hPa 0.0 l/m 0.3 km/h (0 Bft) W-NW -1.8 C -0.5 C
19.01.2003 19:00 -0.4 C 95 % 1015.5 hPa 0.6 l/m 0.0 km/h (0 Bft) - - -1.1 C -0.4 C
19.01.2003 20:00 -0.4 C 98 % 1016.2 hPa 0.3 l/m 0.0 km/h (0 Bft) - - -0.7 C -0.4 C
19.01.2003 21:00 -0.5 C 100 % 1016.4 hPa 0.0 l/m 0.0 km/h (0 Bft) - - -0.5 C -0.5 C
19.01.2003 22:00 -0.4 C 100 % 1016.4 hPa 0.0 l/m 0.1 km/h (0 Bft) - - -0.4 C -0.4 C
19.01.2003 23:00 -0.4 C 100 % 1016.4 hPa 0.0 l/m 0.3 km/h (0 Bft) O-SO -0.4 C -0.5 C
Min-Datum _ 13.01.03 13.01.03 19.01.03 - 13.01.03 - 13.01.03 13.01.03
_ Min-Zeit 03:15 13:15 13:24 - 00:00 - 03:21 04:42
Minimum _ -12.8 C 52 % 1012.3 hPa - 0.0 km/h (0 Bft) - -16.3 C -18.3 C
Max-Datum _ 18.01.03 17.01.03 14.01.03 19.01.03 15.01.03 - 18.01.03 18.01.03
_ Max-Zeit 14:38 00:19 08:04 19:48 12:47 - 13:44 14:41
Maximum _ 4.9 C 100 % 1038.3 hPa 0.6 l/m 26.5 km/h
S-SO (4 Bft)
- 1.0 C 4.9 C
Durchschnitt _ -1.2 C 88 % 1028.6 hPa #1.2 l/m 3.0 km/h (1 Bft) SO -3.1 C -2.1 C

Durchschnitt Minimum Temp.-1.7 C
Durchschnitt Maximum Temp.-0.8 C
© Kaiko 2003